Terminal Aerodrome Forecast
Issued by NWS Sterling, VA

Current Version | Previous Version | Graphics & Text | Print | Product List | Glossary On
Versions: 1 2 3 4 5 6 7 8 9 10 11 12 13 14
000
FTUS41 KLWX 251700
TAFMRB
TAF
KMRB 251739Z 2518/2618 09004KT P6SM SCT050
     FM252200 10004KT P6SM SCT250
     FM260600 VRB03KT 3SM BR FEW250
     FM260800 00000KT 5SM BR FEW250
     FM261200 VRB03KT P6SM SKC=

USA.gov is the U.S. government's official web portal to all federal, state and local government web resources and services.